createdAt,value
2023-04-10T00:00:38.158Z,100.00
2023-04-10T00:03:05.897Z,100.00
2023-04-10T00:05:33.271Z,100.00
2023-04-10T00:08:00.870Z,100.00
2023-04-10T00:10:30.434Z,100.00
2023-04-10T00:12:58.933Z,100.00
2023-04-10T00:15:25.925Z,100.00
2023-04-10T00:17:55.242Z,100.00
2023-04-10T00:20:23.565Z,100.00
2023-04-10T00:22:50.720Z,100.00
2023-04-10T00:25:17.962Z,100.00
2023-04-10T00:27:44.973Z,100.00
2023-04-10T00:30:12.045Z,100.00
2023-04-10T00:32:39.079Z,100.00
2023-04-10T00:35:08.019Z,100.00
2023-04-10T00:37:34.961Z,100.00
2023-04-10T00:40:02.047Z,100.00
2023-04-10T00:42:29.055Z,100.00
2023-04-10T00:44:56.044Z,100.00
2023-04-10T00:47:23.045Z,100.00
2023-04-10T00:49:50.457Z,100.00
2023-04-10T00:52:17.843Z,100.00
2023-04-10T00:54:44.931Z,100.00
2023-04-10T00:57:12.332Z,100.00
2023-04-10T00:59:39.914Z,100.00
2023-04-10T01:02:07.423Z,100.00
2023-04-10T01:04:34.802Z,100.00
2023-04-10T01:07:21.559Z,100.00
2023-04-10T01:10:07.076Z,100.00
2023-04-10T01:12:58.670Z,100.00
2023-04-10T01:15:30.892Z,100.00
2023-04-10T01:18:07.431Z,100.00
2023-04-10T01:20:39.616Z,100.00
2023-04-10T01:23:47.972Z,100.00
2023-04-10T01:26:19.765Z,100.00
2023-04-10T01:28:53.841Z,100.00
2023-04-10T01:31:33.428Z,100.00
2023-04-10T01:34:12.028Z,100.00
2023-04-10T01:36:52.081Z,100.00
2023-04-10T01:39:21.809Z,100.00
2023-04-10T01:41:52.730Z,100.00
2023-04-10T01:44:28.171Z,100.00
2023-04-10T01:46:57.676Z,100.00
2023-04-10T01:49:27.807Z,100.00
2023-04-10T01:52:02.395Z,100.00
2023-04-10T01:54:32.747Z,100.00
2023-04-10T01:57:02.156Z,100.00
2023-04-10T01:59:31.214Z,100.00
2023-04-10T02:02:02.044Z,100.00
2023-04-10T02:04:29.327Z,100.00
2023-04-10T02:07:07.697Z,100.00
2023-04-10T02:09:55.675Z,100.00
2023-04-10T02:12:30.282Z,100.00
2023-04-10T02:15:01.975Z,100.00
2023-04-10T02:17:31.188Z,100.00
2023-04-10T02:19:59.506Z,100.00
2023-04-10T02:22:27.700Z,100.00
2023-04-10T02:24:54.851Z,100.00
2023-04-10T02:27:36.291Z,100.00
2023-04-10T02:30:04.950Z,100.00
2023-04-10T02:32:34.770Z,100.00
2023-04-10T02:35:02.907Z,100.00
2023-04-10T02:37:31.389Z,100.00
2023-04-10T02:40:00.686Z,100.00
2023-04-10T02:42:32.295Z,100.00
2023-04-10T02:45:01.314Z,100.00
2023-04-10T02:47:34.150Z,100.00
2023-04-10T02:50:01.298Z,100.00
2023-04-10T02:52:33.021Z,100.00
2023-04-10T02:55:00.034Z,100.00
2023-04-10T02:57:32.197Z,100.00
2023-04-10T02:59:59.178Z,100.00
2023-04-10T03:02:28.433Z,100.00
2023-04-10T03:04:58.976Z,100.00
2023-04-10T03:07:28.165Z,100.00
2023-04-10T03:09:55.118Z,100.00
2023-04-10T03:12:22.216Z,100.00
2023-04-10T03:14:49.210Z,100.00
2023-04-10T03:17:16.189Z,100.00
2023-04-10T03:19:43.259Z,100.00
2023-04-10T03:22:11.087Z,100.00
2023-04-10T03:24:41.066Z,100.00
2023-04-10T03:27:08.118Z,100.00
2023-04-10T03:29:35.155Z,100.00
2023-04-10T03:32:02.432Z,100.00
2023-04-10T03:34:30.434Z,100.00
2023-04-10T03:36:57.448Z,100.00
2023-04-10T03:39:24.688Z,100.00
2023-04-10T03:41:51.700Z,100.00
2023-04-10T03:44:19.762Z,100.00
2023-04-10T03:46:46.760Z,100.00
2023-04-10T03:49:13.741Z,100.00
2023-04-10T03:51:41.140Z,100.00
2023-04-10T03:54:08.103Z,100.00
2023-04-10T03:56:35.361Z,100.00
2023-04-10T03:59:02.393Z,100.00
2023-04-10T04:01:32.710Z,100.00
2023-04-10T04:04:05.107Z,100.00
2023-04-10T04:06:50.448Z,100.00
2023-04-10T04:09:20.667Z,100.00
2023-04-10T04:12:08.127Z,100.00
2023-04-10T04:14:53.719Z,100.00
2023-04-10T04:17:23.330Z,100.00
2023-04-10T04:19:57.844Z,100.00
2023-04-10T04:22:44.808Z,100.00
2023-04-10T04:25:34.672Z,100.00
2023-04-10T04:28:04.353Z,100.00
2023-04-10T04:30:35.712Z,100.00
2023-04-10T04:33:25.582Z,100.00
2023-04-10T04:35:58.235Z,100.00
2023-04-10T04:38:55.492Z,100.00
2023-04-10T04:41:30.731Z,100.00
2023-04-10T04:44:10.298Z,100.00
2023-04-10T04:46:51.101Z,100.00
2023-04-10T04:49:40.981Z,100.00
2023-04-10T04:52:28.036Z,100.00
2023-04-10T04:55:17.668Z,100.00
2023-04-10T04:58:05.404Z,100.00
2023-04-10T05:00:44.527Z,100.00
2023-04-10T05:03:32.595Z,100.00
2023-04-10T05:06:22.913Z,100.00
2023-04-10T05:09:09.497Z,100.00
2023-04-10T05:12:06.006Z,100.00
2023-04-10T05:14:52.038Z,100.00
2023-04-10T05:17:37.362Z,100.00
2023-04-10T05:20:14.449Z,100.00
2023-04-10T05:22:56.152Z,100.00
2023-04-10T05:25:46.169Z,100.00
2023-04-10T05:28:19.593Z,100.00
2023-04-10T05:31:07.168Z,100.00
2023-04-10T05:33:50.691Z,100.00
2023-04-10T05:36:39.232Z,100.00
2023-04-10T05:39:20.577Z,100.00
2023-04-10T05:41:59.068Z,100.00
2023-04-10T05:44:31.498Z,100.00
2023-04-10T05:47:18.690Z,100.00
2023-04-10T05:49:57.599Z,100.00
2023-04-10T05:52:42.898Z,97.82
2023-04-10T05:55:33.088Z,98.76
2023-04-10T05:58:14.918Z,97.71
2023-04-10T06:00:59.315Z,100.00
2023-04-10T06:03:48.091Z,92.21
2023-04-10T06:06:17.256Z,86.76
2023-04-10T06:08:44.868Z,83.66
2023-04-10T06:11:11.964Z,81.63
2023-04-10T06:13:41.344Z,81.85
2023-04-10T06:16:09.122Z,77.19
2023-04-10T06:18:37.706Z,72.44
2023-04-10T06:21:05.056Z,75.55
2023-04-10T06:23:32.291Z,72.75
2023-04-10T06:26:00.352Z,75.62
2023-04-10T06:28:27.552Z,72.80
2023-04-10T06:30:58.268Z,71.02
2023-04-10T06:33:31.215Z,69.01
2023-04-10T06:35:59.115Z,68.08
2023-04-10T06:38:26.282Z,68.45
2023-04-10T06:40:53.517Z,68.31
2023-04-10T06:43:20.467Z,66.99
2023-04-10T06:45:48.804Z,66.69
2023-04-10T06:48:15.789Z,67.03
2023-04-10T06:50:42.919Z,68.61
2023-04-10T06:53:09.948Z,69.73
2023-04-10T06:55:37.624Z,69.15
2023-04-10T06:58:04.780Z,69.63
2023-04-10T07:00:32.310Z,68.99
2023-04-10T07:02:59.293Z,67.00
2023-04-10T07:05:26.352Z,65.58
2023-04-10T07:07:53.423Z,64.63
2023-04-10T07:10:20.815Z,65.77
2023-04-10T07:12:47.936Z,64.48
2023-04-10T07:15:14.911Z,62.36
2023-04-10T07:17:42.499Z,64.12
2023-04-10T07:20:10.493Z,62.60
2023-04-10T07:22:37.628Z,61.46
2023-04-10T07:25:05.040Z,60.67
2023-04-10T07:27:32.261Z,57.04
2023-04-10T07:29:59.182Z,57.66
2023-04-10T07:32:26.945Z,56.82
2023-04-10T07:34:54.230Z,52.76
2023-04-10T07:37:21.305Z,55.19
2023-04-10T07:39:48.281Z,55.91
2023-04-10T07:42:15.390Z,54.36
2023-04-10T07:44:42.307Z,54.97
2023-04-10T07:47:09.658Z,54.24
2023-04-10T07:49:36.791Z,51.84
2023-04-10T07:52:03.868Z,52.73
2023-04-10T07:54:34.432Z,52.28
2023-04-10T07:57:01.456Z,53.53
2023-04-10T07:59:28.786Z,52.91
2023-04-10T08:01:56.158Z,52.01
2023-04-10T08:04:23.567Z,53.92
2023-04-10T08:06:50.861Z,52.06
2023-04-10T08:09:17.931Z,52.88
2023-04-10T08:11:44.918Z,51.71
2023-04-10T08:14:13.449Z,52.27
2023-04-10T08:16:45.336Z,51.58
2023-04-10T08:19:12.502Z,50.79
2023-04-10T08:21:39.450Z,49.14
2023-04-10T08:24:06.568Z,48.58
2023-04-10T08:26:33.525Z,47.49
2023-04-10T08:29:00.963Z,48.23
2023-04-10T08:31:29.329Z,45.94
2023-04-10T08:33:57.163Z,47.42
2023-04-10T08:36:24.655Z,46.11
2023-04-10T08:38:51.588Z,46.02
2023-04-10T08:41:20.092Z,46.03
2023-04-10T08:43:47.433Z,45.69
2023-04-10T08:46:15.139Z,45.48
2023-04-10T08:49:03.966Z,46.15
2023-04-10T08:51:42.822Z,46.11
2023-04-10T08:54:23.342Z,45.63
2023-04-10T08:56:53.995Z,44.41
2023-04-10T08:59:21.231Z,43.90
2023-04-10T09:01:49.089Z,44.37
2023-04-10T09:04:20.434Z,44.09
2023-04-10T09:06:47.701Z,42.19
2023-04-10T09:09:14.686Z,42.67
2023-04-10T09:11:56.459Z,41.53
2023-04-10T09:14:25.679Z,41.81
2023-04-10T09:16:55.097Z,40.51
2023-04-10T09:19:33.686Z,39.72
2023-04-10T09:22:01.071Z,40.93
2023-04-10T09:24:28.449Z,40.79
2023-04-10T09:26:56.249Z,41.81
2023-04-10T09:29:23.230Z,41.37
2023-04-10T09:31:51.357Z,40.72
2023-04-10T09:34:23.698Z,40.29
2023-04-10T09:36:59.870Z,39.71
2023-04-10T09:39:36.086Z,40.11
2023-04-10T09:42:03.108Z,39.39
2023-04-10T09:44:37.381Z,41.72
2023-04-10T09:47:22.976Z,39.95
2023-04-10T09:49:56.792Z,39.37
2023-04-10T09:52:29.115Z,39.74
2023-04-10T09:55:08.638Z,40.05
2023-04-10T09:57:36.422Z,38.79
2023-04-10T10:00:08.154Z,38.05
2023-04-10T10:02:41.716Z,37.75
2023-04-10T10:05:10.113Z,38.56
2023-04-10T10:07:38.735Z,39.16
2023-04-10T10:10:09.231Z,39.64
2023-04-10T10:12:44.879Z,39.06
2023-04-10T10:15:21.091Z,39.19
2023-04-10T10:18:02.942Z,39.28
2023-04-10T10:20:32.900Z,37.80
2023-04-10T10:23:03.581Z,37.78
2023-04-10T10:25:31.823Z,37.53
2023-04-10T10:28:03.604Z,37.33
2023-04-10T10:30:33.865Z,37.65
2023-04-10T10:33:07.600Z,36.92
2023-04-10T10:35:38.057Z,37.13
2023-04-10T10:38:06.283Z,36.37
2023-04-10T10:40:39.757Z,36.76
2023-04-10T10:43:25.181Z,37.16
2023-04-10T10:46:03.643Z,36.92
2023-04-10T10:48:31.066Z,37.89
2023-04-10T10:51:00.453Z,38.42
2023-04-10T10:53:37.939Z,36.97
2023-04-10T10:56:20.819Z,37.11
2023-04-10T10:58:57.553Z,37.91
2023-04-10T11:01:25.164Z,37.60
2023-04-10T11:03:52.717Z,35.75
2023-04-10T11:06:21.595Z,34.94
2023-04-10T11:08:52.954Z,36.13
2023-04-10T11:11:25.205Z,34.84
2023-04-10T11:13:52.562Z,34.00
2023-04-10T11:16:21.408Z,34.27
2023-04-10T11:19:02.702Z,34.05
2023-04-10T11:21:45.602Z,34.37
2023-04-10T11:24:13.113Z,33.36
2023-04-10T11:26:41.597Z,33.27
2023-04-10T11:29:17.646Z,33.17
2023-04-10T11:31:46.149Z,32.69
2023-04-10T11:34:15.681Z,33.05
2023-04-10T11:36:44.631Z,32.59
2023-04-10T11:39:13.266Z,30.59
2023-04-10T11:41:43.464Z,32.01
2023-04-10T11:44:16.482Z,32.59
2023-04-10T11:46:47.449Z,33.95
2023-04-10T11:49:22.001Z,33.19
2023-04-10T11:51:51.070Z,32.63
2023-04-10T11:54:25.916Z,33.49
2023-04-10T11:57:09.118Z,33.74
2023-04-10T11:59:36.814Z,32.36
2023-04-10T12:02:17.604Z,31.88
2023-04-10T12:04:45.559Z,31.90
2023-04-10T12:07:13.083Z,32.39
2023-04-10T12:09:40.900Z,32.57
2023-04-10T12:12:08.950Z,31.27
2023-04-10T12:14:42.665Z,31.48
2023-04-10T12:17:12.885Z,31.14
2023-04-10T12:19:40.733Z,31.54
2023-04-10T12:22:08.108Z,32.03
2023-04-10T12:24:51.213Z,31.20
2023-04-10T12:27:26.966Z,32.56
2023-04-10T12:29:56.394Z,31.57
2023-04-10T12:32:24.773Z,30.43
2023-04-10T12:35:01.389Z,30.29
2023-04-10T12:38:07.382Z,29.65
2023-04-10T12:40:34.763Z,30.92
2023-04-10T12:43:02.099Z,28.71
2023-04-10T12:45:49.744Z,27.06
2023-04-10T12:48:24.535Z,27.47
2023-04-10T12:50:52.428Z,29.20
2023-04-10T12:53:19.805Z,28.52
2023-04-10T12:56:03.162Z,28.04
2023-04-10T12:58:31.728Z,27.96
2023-04-10T13:01:03.911Z,28.01
2023-04-10T13:03:33.832Z,28.37
2023-04-10T13:06:01.351Z,29.81
2023-04-10T13:08:32.157Z,30.24
2023-04-10T13:11:05.738Z,30.14
2023-04-10T13:13:33.400Z,29.30
2023-04-10T13:16:00.838Z,29.46
2023-04-10T13:18:28.317Z,29.67
2023-04-10T13:20:55.741Z,29.59
2023-04-10T13:23:23.154Z,29.95
2023-04-10T13:25:51.107Z,29.66
2023-04-10T13:28:18.961Z,30.21
2023-04-10T13:30:46.379Z,30.47
2023-04-10T13:33:13.889Z,31.04
2023-04-10T13:35:41.311Z,30.06
2023-04-10T13:38:09.562Z,31.07
2023-04-10T13:40:37.140Z,31.57
2023-04-10T13:43:06.323Z,31.41
2023-04-10T13:45:34.889Z,31.57
2023-04-10T13:48:02.330Z,31.92
2023-04-10T13:50:29.686Z,32.30
2023-04-10T13:52:57.059Z,32.88
2023-04-10T13:55:24.454Z,33.11
2023-04-10T13:57:52.112Z,33.24
2023-04-10T14:00:19.616Z,34.28
2023-04-10T14:02:47.132Z,32.81
2023-04-10T14:05:14.533Z,32.79
2023-04-10T14:07:41.946Z,32.58
2023-04-10T14:10:09.918Z,33.47
2023-04-10T14:12:38.019Z,32.96
2023-04-10T14:15:05.964Z,33.48
2023-04-10T14:17:33.985Z,33.36
2023-04-10T14:20:01.822Z,33.21
2023-04-10T14:22:30.336Z,32.83
2023-04-10T14:25:09.435Z,33.06
2023-04-10T14:27:42.080Z,33.32
2023-04-10T14:30:10.765Z,33.14
2023-04-10T14:32:39.632Z,33.26
2023-04-10T14:35:07.504Z,33.92
2023-04-10T14:37:34.859Z,33.93
2023-04-10T14:40:02.386Z,32.91
2023-04-10T14:42:30.068Z,33.35
2023-04-10T14:45:00.541Z,32.80
2023-04-10T14:47:28.065Z,34.13
2023-04-10T14:49:55.494Z,33.07
2023-04-10T14:52:22.996Z,33.27
2023-04-10T14:54:50.367Z,33.24
2023-04-10T14:57:17.746Z,34.06
2023-04-10T14:59:45.403Z,32.61
2023-04-10T15:02:12.745Z,34.04
2023-04-10T15:04:40.329Z,33.47
2023-04-10T15:07:07.780Z,34.06
2023-04-10T15:09:35.196Z,34.30
2023-04-10T15:12:02.565Z,34.72
2023-04-10T15:14:29.903Z,34.48
2023-04-10T15:16:57.365Z,34.07
2023-04-10T15:19:24.869Z,33.39
2023-04-10T15:21:52.168Z,34.26
2023-04-10T15:24:19.528Z,33.47
2023-04-10T15:26:47.178Z,34.30
2023-04-10T15:29:14.829Z,33.46
2023-04-10T15:31:42.324Z,34.53
2023-04-10T15:34:10.308Z,34.10
2023-04-10T15:36:37.660Z,33.37
2023-04-10T15:39:05.195Z,34.13
2023-04-10T15:41:33.147Z,33.88
2023-04-10T15:44:00.560Z,34.79
2023-04-10T15:46:29.116Z,34.00
2023-04-10T15:48:56.429Z,34.88
2023-04-10T15:51:23.820Z,34.06
2023-04-10T15:53:51.155Z,33.96
2023-04-10T15:56:18.518Z,34.31
2023-04-10T15:58:45.848Z,35.60
2023-04-10T16:01:13.317Z,35.42
2023-04-10T16:03:41.006Z,35.52
2023-04-10T16:06:08.830Z,35.69
2023-04-10T16:08:36.274Z,35.97
2023-04-10T16:11:03.760Z,36.20
2023-04-10T16:13:31.154Z,36.53
2023-04-10T16:15:58.675Z,37.40
2023-04-10T16:18:26.170Z,36.19
2023-04-10T16:20:53.579Z,36.20
2023-04-10T16:23:21.011Z,36.17
2023-04-10T16:25:48.339Z,37.14
2023-04-10T16:28:15.758Z,37.17
2023-04-10T16:30:43.077Z,36.88
2023-04-10T16:33:10.567Z,37.30
2023-04-10T16:35:38.103Z,36.28
2023-04-10T16:38:05.566Z,36.79
2023-04-10T16:40:33.161Z,37.30
2023-04-10T16:43:01.851Z,37.24
2023-04-10T16:45:29.415Z,37.15
2023-04-10T16:47:56.834Z,37.33
2023-04-10T16:50:24.227Z,37.26
2023-04-10T16:52:51.612Z,37.97
2023-04-10T16:55:19.023Z,37.61
2023-04-10T16:57:46.740Z,38.20
2023-04-10T17:00:14.450Z,37.45
2023-04-10T17:02:42.973Z,37.77
2023-04-10T17:05:12.216Z,37.66
2023-04-10T17:07:39.556Z,38.31
2023-04-10T17:10:07.409Z,38.61
2023-04-10T17:12:34.883Z,39.01
2023-04-10T17:15:02.421Z,38.72
2023-04-10T17:17:29.894Z,39.45
2023-04-10T17:19:58.495Z,38.64
2023-04-10T17:22:26.191Z,39.33
2023-04-10T17:24:53.593Z,39.51
2023-04-10T17:27:21.004Z,39.53
2023-04-10T17:29:48.405Z,39.11
2023-04-10T17:32:15.797Z,38.29
2023-04-10T17:34:43.135Z,38.70
2023-04-10T17:37:10.510Z,39.17
2023-04-10T17:39:37.917Z,38.50
2023-04-10T17:42:05.278Z,38.23
2023-04-10T17:44:33.027Z,39.04
2023-04-10T17:47:01.379Z,39.18
2023-04-10T17:49:28.779Z,38.90
2023-04-10T17:51:56.165Z,38.81
2023-04-10T17:54:23.499Z,39.46
2023-04-10T17:56:53.000Z,39.32
2023-04-10T17:59:20.358Z,39.75
2023-04-10T18:01:47.976Z,39.10
2023-04-10T18:04:15.429Z,39.58
2023-04-10T18:06:42.876Z,39.17
2023-04-10T18:09:11.490Z,39.38
2023-04-10T18:11:40.382Z,38.71
2023-04-10T18:14:07.840Z,39.85
2023-04-10T18:16:35.273Z,39.59
2023-04-10T18:19:02.725Z,40.07
2023-04-10T18:21:31.491Z,39.55
2023-04-10T18:23:58.802Z,39.54
2023-04-10T18:26:28.572Z,39.60
2023-04-10T18:28:56.204Z,40.18
2023-04-10T18:31:24.120Z,39.56
2023-04-10T18:34:03.826Z,40.01
2023-04-10T18:36:34.293Z,39.71
2023-04-10T18:39:01.700Z,40.04
2023-04-10T18:41:29.143Z,40.19
2023-04-10T18:44:04.884Z,39.78
2023-04-10T18:46:33.258Z,39.87
2023-04-10T18:49:01.623Z,40.09
2023-04-10T18:51:29.196Z,39.70
2023-04-10T18:53:56.735Z,41.09
2023-04-10T18:56:24.278Z,40.16
2023-04-10T18:58:51.684Z,40.61
2023-04-10T19:01:19.030Z,40.68
2023-04-10T19:03:49.140Z,40.75
2023-04-10T19:06:18.398Z,41.05
2023-04-10T19:08:45.803Z,40.86
2023-04-10T19:11:13.126Z,41.97
2023-04-10T19:13:40.795Z,41.32
2023-04-10T19:16:09.073Z,41.84
2023-04-10T19:18:36.406Z,42.08
2023-04-10T19:21:04.210Z,41.84
2023-04-10T19:23:31.596Z,41.83
2023-04-10T19:26:00.305Z,42.04
2023-04-10T19:28:28.619Z,42.14
2023-04-10T19:30:56.083Z,42.80
2023-04-10T19:33:24.148Z,41.98
2023-04-10T19:35:51.740Z,42.39
2023-04-10T19:38:19.293Z,42.56
2023-04-10T19:40:47.266Z,42.32
2023-04-10T19:43:14.656Z,42.81
2023-04-10T19:45:42.054Z,43.06
2023-04-10T19:48:09.895Z,42.76
2023-04-10T19:50:37.288Z,42.16
2023-04-10T19:53:04.971Z,42.27
2023-04-10T19:55:32.414Z,42.83
2023-04-10T19:57:59.890Z,42.78
2023-04-10T20:00:27.228Z,42.98
2023-04-10T20:02:54.993Z,42.92
2023-04-10T20:05:22.532Z,43.97
2023-04-10T20:07:50.417Z,43.71
2023-04-10T20:10:17.798Z,44.13
2023-04-10T20:12:45.269Z,43.66
2023-04-10T20:15:12.782Z,42.89
2023-04-10T20:17:40.260Z,42.84
2023-04-10T20:20:08.154Z,43.49
2023-04-10T20:22:35.678Z,43.27
2023-04-10T20:25:03.012Z,43.52
2023-04-10T20:27:30.380Z,43.73
2023-04-10T20:29:57.677Z,43.63
2023-04-10T20:32:25.148Z,44.40
2023-04-10T20:34:52.691Z,44.23
2023-04-10T20:37:21.995Z,44.27
2023-04-10T20:39:49.662Z,44.25
2023-04-10T20:42:17.185Z,44.57
2023-04-10T20:44:44.613Z,44.33
2023-04-10T20:47:12.114Z,44.88
2023-04-10T20:49:39.605Z,44.89
2023-04-10T20:52:07.477Z,44.23
2023-04-10T20:54:34.870Z,45.58
2023-04-10T20:57:02.271Z,44.81
2023-04-10T20:59:30.072Z,43.98
2023-04-10T21:02:00.281Z,44.58
2023-04-10T21:04:27.637Z,44.97
2023-04-10T21:06:55.014Z,44.94
2023-04-10T21:09:22.434Z,45.22
2023-04-10T21:11:49.843Z,45.67
2023-04-10T21:14:17.195Z,45.38
2023-04-10T21:16:45.877Z,46.01
2023-04-10T21:19:13.430Z,46.44
2023-04-10T21:21:40.860Z,46.67
2023-04-10T21:24:08.334Z,46.62
2023-04-10T21:26:35.728Z,46.96
2023-04-10T21:29:03.072Z,47.88
2023-04-10T21:31:30.602Z,48.06
2023-04-10T21:33:58.011Z,48.06
2023-04-10T21:36:26.450Z,48.69
2023-04-10T21:38:54.058Z,49.07
2023-04-10T21:41:21.676Z,48.97
2023-04-10T21:43:49.030Z,50.03
2023-04-10T21:46:16.356Z,50.15
2023-04-10T21:48:43.849Z,50.82
2023-04-10T21:51:11.181Z,50.89
2023-04-10T21:53:38.696Z,50.87
2023-04-10T21:56:06.540Z,51.79
2023-04-10T21:58:33.928Z,51.77
2023-04-10T22:01:01.622Z,52.39
2023-04-10T22:03:29.216Z,52.50
2023-04-10T22:05:56.568Z,52.29
2023-04-10T22:08:23.949Z,52.62
2023-04-10T22:10:52.281Z,52.37
2023-04-10T22:13:30.446Z,52.84
2023-04-10T22:15:59.805Z,52.66
2023-04-10T22:18:27.262Z,52.61
2023-04-10T22:20:54.580Z,52.87
2023-04-10T22:23:22.006Z,51.66
2023-04-10T22:25:49.353Z,53.06
2023-04-10T22:28:16.741Z,52.29
2023-04-10T22:30:44.124Z,52.47
2023-04-10T22:33:12.164Z,53.09
2023-04-10T22:35:39.514Z,52.51
2023-04-10T22:38:07.691Z,53.30
2023-04-10T22:40:35.295Z,53.27
2023-04-10T22:43:02.672Z,54.07
2023-04-10T22:45:30.130Z,54.26
2023-04-10T22:47:57.568Z,53.69
2023-04-10T22:50:24.869Z,54.27
2023-04-10T22:52:52.181Z,54.20
2023-04-10T22:55:19.638Z,55.29
2023-04-10T22:57:50.223Z,55.66
2023-04-10T23:00:17.847Z,55.81
2023-04-10T23:02:45.387Z,55.65
2023-04-10T23:05:12.777Z,56.05
2023-04-10T23:07:40.395Z,56.45
2023-04-10T23:10:08.476Z,56.67
2023-04-10T23:12:35.853Z,56.43
2023-04-10T23:15:03.639Z,57.13
2023-04-10T23:17:31.077Z,56.69
2023-04-10T23:19:58.516Z,56.90
2023-04-10T23:22:25.915Z,57.36
2023-04-10T23:24:54.744Z,58.15
2023-04-10T23:27:22.308Z,58.23
2023-04-10T23:29:50.104Z,58.85
2023-04-10T23:32:17.562Z,59.41
2023-04-10T23:34:44.900Z,59.55
2023-04-10T23:37:12.333Z,59.10
2023-04-10T23:39:39.718Z,59.33
2023-04-10T23:42:07.119Z,59.48
2023-04-10T23:44:34.453Z,58.82
2023-04-10T23:47:01.945Z,59.70
2023-04-10T23:49:29.428Z,59.26
2023-04-10T23:51:56.836Z,58.58
2023-04-10T23:54:24.183Z,59.04
2023-04-10T23:56:51.552Z,59.79
2023-04-10T23:59:19.492Z,59.67
